sensor_id;sensor_type;location;lat;lon;timestamp;P1;durP1;ratioP1;P2;durP2;ratioP2
75793;SDS011;64418;47.536;19.074;2023-04-24T00:00:19;11.00;;;6.70;;
75793;SDS011;64418;47.536;19.074;2023-04-24T00:03:05;9.30;;;7.12;;
75793;SDS011;64418;47.536;19.074;2023-04-24T00:05:50;9.38;;;7.18;;
75793;SDS011;64418;47.536;19.074;2023-04-24T00:08:34;12.25;;;7.10;;
75793;SDS011;64418;47.536;19.074;2023-04-24T00:11:19;12.77;;;8.13;;
75793;SDS011;64418;47.536;19.074;2023-04-24T00:14:03;11.97;;;7.33;;
75793;SDS011;64418;47.536;19.074;2023-04-24T00:16:47;10.73;;;7.20;;
75793;SDS011;64418;47.536;19.074;2023-04-24T00:19:33;12.30;;;7.43;;
75793;SDS011;64418;47.536;19.074;2023-04-24T00:22:18;13.77;;;7.60;;
75793;SDS011;64418;47.536;19.074;2023-04-24T00:25:02;12.75;;;7.53;;
75793;SDS011;64418;47.536;19.074;2023-04-24T00:27:47;10.95;;;6.80;;
75793;SDS011;64418;47.536;19.074;2023-04-24T00:30:31;10.83;;;7.17;;
75793;SDS011;64418;47.536;19.074;2023-04-24T00:33:16;9.83;;;7.33;;
75793;SDS011;64418;47.536;19.074;2023-04-24T00:36:01;11.38;;;7.45;;
75793;SDS011;64418;47.536;19.074;2023-04-24T00:38:45;12.93;;;7.60;;
75793;SDS011;64418;47.536;19.074;2023-04-24T00:41:30;11.25;;;8.00;;
75793;SDS011;64418;47.536;19.074;2023-04-24T00:44:14;10.95;;;7.72;;
75793;SDS011;64418;47.536;19.074;2023-04-24T00:46:58;10.03;;;7.77;;
75793;SDS011;64418;47.536;19.074;2023-04-24T00:49:43;14.85;;;7.30;;
75793;SDS011;64418;47.536;19.074;2023-04-24T00:52:29;10.38;;;6.40;;
75793;SDS011;64418;47.536;19.074;2023-04-24T00:55:13;11.38;;;6.03;;
75793;SDS011;64418;47.536;19.074;2023-04-24T00:57:58;11.73;;;6.18;;
75793;SDS011;64418;47.536;19.074;2023-04-24T01:00:43;8.00;;;5.70;;
75793;SDS011;64418;47.536;19.074;2023-04-24T01:03:29;12.00;;;5.63;;
75793;SDS011;64418;47.536;19.074;2023-04-24T01:06:15;10.20;;;5.40;;
75793;SDS011;64418;47.536;19.074;2023-04-24T01:09:01;6.78;;;5.30;;
75793;SDS011;64418;47.536;19.074;2023-04-24T01:11:46;8.90;;;5.75;;
75793;SDS011;64418;47.536;19.074;2023-04-24T01:14:30;9.25;;;5.55;;
75793;SDS011;64418;47.536;19.074;2023-04-24T01:17:15;8.93;;;5.07;;
75793;SDS011;64418;47.536;19.074;2023-04-24T01:20:00;8.70;;;5.00;;
75793;SDS011;64418;47.536;19.074;2023-04-24T01:22:46;11.20;;;5.45;;
75793;SDS011;64418;47.536;19.074;2023-04-24T01:25:30;8.77;;;5.50;;
75793;SDS011;64418;47.536;19.074;2023-04-24T01:28:15;7.10;;;5.57;;
75793;SDS011;64418;47.536;19.074;2023-04-24T01:31:00;10.07;;;5.53;;
75793;SDS011;64418;47.536;19.074;2023-04-24T01:33:44;9.30;;;5.23;;
75793;SDS011;64418;47.536;19.074;2023-04-24T01:36:29;7.47;;;5.87;;
75793;SDS011;64418;47.536;19.074;2023-04-24T01:39:17;7.45;;;5.20;;
75793;SDS011;64418;47.536;19.074;2023-04-24T01:42:01;10.50;;;5.97;;
75793;SDS011;64418;47.536;19.074;2023-04-24T01:44:45;12.77;;;5.35;;
75793;SDS011;64418;47.536;19.074;2023-04-24T01:47:30;9.27;;;5.30;;
75793;SDS011;64418;47.536;19.074;2023-04-24T01:50:15;7.50;;;5.50;;
75793;SDS011;64418;47.536;19.074;2023-04-24T01:52:59;6.45;;;5.20;;
75793;SDS011;64418;47.536;19.074;2023-04-24T01:55:45;9.20;;;5.50;;
75793;SDS011;64418;47.536;19.074;2023-04-24T01:58:30;14.13;;;6.03;;
75793;SDS011;64418;47.536;19.074;2023-04-24T02:01:17;10.15;;;5.72;;
75793;SDS011;64418;47.536;19.074;2023-04-24T02:04:03;6.80;;;5.20;;
75793;SDS011;64418;47.536;19.074;2023-04-24T02:06:48;7.72;;;5.57;;
75793;SDS011;64418;47.536;19.074;2023-04-24T02:09:32;9.75;;;6.28;;
75793;SDS011;64418;47.536;19.074;2023-04-24T02:12:18;9.95;;;6.10;;
75793;SDS011;64418;47.536;19.074;2023-04-24T02:15:03;9.23;;;6.12;;
75793;SDS011;64418;47.536;19.074;2023-04-24T02:17:48;6.80;;;6.10;;
75793;SDS011;64418;47.536;19.074;2023-04-24T02:20:33;10.47;;;6.77;;
75793;SDS011;64418;47.536;19.074;2023-04-24T02:23:17;10.02;;;6.20;;
75793;SDS011;64418;47.536;19.074;2023-04-24T02:26:02;8.52;;;6.87;;
75793;SDS011;64418;47.536;19.074;2023-04-24T02:28:48;11.52;;;6.03;;
75793;SDS011;64418;47.536;19.074;2023-04-24T02:31:32;11.88;;;6.95;;
75793;SDS011;64418;47.536;19.074;2023-04-24T02:34:17;9.40;;;7.23;;
75793;SDS011;64418;47.536;19.074;2023-04-24T02:37:01;10.50;;;7.87;;
75793;SDS011;64418;47.536;19.074;2023-04-24T02:39:46;8.85;;;7.15;;
75793;SDS011;64418;47.536;19.074;2023-04-24T02:42:30;10.90;;;7.68;;
75793;SDS011;64418;47.536;19.074;2023-04-24T02:45:16;9.43;;;6.72;;
75793;SDS011;64418;47.536;19.074;2023-04-24T02:48:01;11.05;;;7.80;;
75793;SDS011;64418;47.536;19.074;2023-04-24T02:50:46;9.87;;;6.70;;
75793;SDS011;64418;47.536;19.074;2023-04-24T02:53:30;8.10;;;6.45;;
75793;SDS011;64418;47.536;19.074;2023-04-24T02:56:14;11.68;;;6.60;;
75793;SDS011;64418;47.536;19.074;2023-04-24T02:58:59;9.15;;;6.93;;
75793;SDS011;64418;47.536;19.074;2023-04-24T03:01:44;9.27;;;7.03;;
75793;SDS011;64418;47.536;19.074;2023-04-24T03:04:28;12.57;;;6.77;;
75793;SDS011;64418;47.536;19.074;2023-04-24T03:07:13;10.73;;;7.03;;
75793;SDS011;64418;47.536;19.074;2023-04-24T03:09:58;8.50;;;6.70;;
75793;SDS011;64418;47.536;19.074;2023-04-24T03:12:42;9.85;;;7.37;;
75793;SDS011;64418;47.536;19.074;2023-04-24T03:15:26;13.40;;;7.30;;
75793;SDS011;64418;47.536;19.074;2023-04-24T03:18:12;11.65;;;7.78;;
75793;SDS011;64418;47.536;19.074;2023-04-24T03:20:56;12.60;;;7.90;;
75793;SDS011;64418;47.536;19.074;2023-04-24T03:23:41;11.38;;;7.68;;
75793;SDS011;64418;47.536;19.074;2023-04-24T03:26:25;14.18;;;8.18;;
75793;SDS011;64418;47.536;19.074;2023-04-24T03:29:10;11.85;;;8.00;;
75793;SDS011;64418;47.536;19.074;2023-04-24T03:31:54;11.10;;;8.02;;
75793;SDS011;64418;47.536;19.074;2023-04-24T03:34:40;12.70;;;8.07;;
75793;SDS011;64418;47.536;19.074;2023-04-24T03:37:24;9.73;;;7.40;;
75793;SDS011;64418;47.536;19.074;2023-04-24T03:40:09;11.45;;;8.18;;
75793;SDS011;64418;47.536;19.074;2023-04-24T03:42:53;11.40;;;8.70;;
75793;SDS011;64418;47.536;19.074;2023-04-24T03:45:37;12.68;;;7.85;;
75793;SDS011;64418;47.536;19.074;2023-04-24T03:48:21;13.27;;;7.53;;
75793;SDS011;64418;47.536;19.074;2023-04-24T03:51:07;9.37;;;6.93;;
75793;SDS011;64418;47.536;19.074;2023-04-24T03:53:51;12.05;;;7.32;;
75793;SDS011;64418;47.536;19.074;2023-04-24T03:56:36;10.90;;;7.85;;
75793;SDS011;64418;47.536;19.074;2023-04-24T03:59:20;9.55;;;6.70;;
75793;SDS011;64418;47.536;19.074;2023-04-24T04:02:04;10.18;;;7.40;;
75793;SDS011;64418;47.536;19.074;2023-04-24T04:04:49;11.20;;;7.20;;
75793;SDS011;64418;47.536;19.074;2023-04-24T04:07:35;12.30;;;8.60;;
75793;SDS011;64418;47.536;19.074;2023-04-24T04:10:19;12.10;;;7.18;;
75793;SDS011;64418;47.536;19.074;2023-04-24T04:13:03;9.50;;;6.68;;
75793;SDS011;64418;47.536;19.074;2023-04-24T04:15:48;12.95;;;7.22;;
75793;SDS011;64418;47.536;19.074;2023-04-24T04:18:33;11.40;;;8.13;;
75793;SDS011;64418;47.536;19.074;2023-04-24T04:21:17;10.83;;;6.93;;
75793;SDS011;64418;47.536;19.074;2023-04-24T04:24:04;13.73;;;8.10;;
75793;SDS011;64418;47.536;19.074;2023-04-24T04:26:49;9.82;;;7.43;;
75793;SDS011;64418;47.536;19.074;2023-04-24T04:29:33;12.18;;;7.90;;
75793;SDS011;64418;47.536;19.074;2023-04-24T04:32:18;10.40;;;7.45;;
75793;SDS011;64418;47.536;19.074;2023-04-24T04:35:03;8.82;;;6.85;;
75793;SDS011;64418;47.536;19.074;2023-04-24T04:37:47;9.83;;;7.33;;
75793;SDS011;64418;47.536;19.074;2023-04-24T04:40:33;12.73;;;7.00;;
75793;SDS011;64418;47.536;19.074;2023-04-24T04:43:17;8.52;;;7.20;;
75793;SDS011;64418;47.536;19.074;2023-04-24T04:46:02;13.15;;;7.40;;
75793;SDS011;64418;47.536;19.074;2023-04-24T04:48:46;9.13;;;7.20;;
75793;SDS011;64418;47.536;19.074;2023-04-24T04:51:30;10.02;;;7.50;;
75793;SDS011;64418;47.536;19.074;2023-04-24T04:54:15;12.20;;;7.70;;
75793;SDS011;64418;47.536;19.074;2023-04-24T04:57:01;12.27;;;7.77;;
75793;SDS011;64418;47.536;19.074;2023-04-24T04:59:46;15.13;;;7.78;;
75793;SDS011;64418;47.536;19.074;2023-04-24T05:02:30;15.15;;;7.53;;
75793;SDS011;64418;47.536;19.074;2023-04-24T05:05:15;14.48;;;7.95;;
75793;SDS011;64418;47.536;19.074;2023-04-24T05:08:00;12.90;;;7.90;;
75793;SDS011;64418;47.536;19.074;2023-04-24T05:10:44;13.53;;;7.40;;
75793;SDS011;64418;47.536;19.074;2023-04-24T05:13:30;15.73;;;8.33;;
75793;SDS011;64418;47.536;19.074;2023-04-24T05:16:14;16.10;;;8.43;;
75793;SDS011;64418;47.536;19.074;2023-04-24T05:18:59;18.00;;;8.65;;
75793;SDS011;64418;47.536;19.074;2023-04-24T05:21:43;16.25;;;9.27;;
75793;SDS011;64418;47.536;19.074;2023-04-24T05:24:28;19.73;;;9.18;;
75793;SDS011;64418;47.536;19.074;2023-04-24T05:27:13;14.73;;;8.63;;
75793;SDS011;64418;47.536;19.074;2023-04-24T05:29:58;25.45;;;9.20;;
75793;SDS011;64418;47.536;19.074;2023-04-24T05:32:42;19.15;;;9.20;;
75793;SDS011;64418;47.536;19.074;2023-04-24T05:35:26;22.48;;;10.02;;
75793;SDS011;64418;47.536;19.074;2023-04-24T05:38:11;20.70;;;8.73;;
75793;SDS011;64418;47.536;19.074;2023-04-24T05:40:55;14.00;;;7.57;;
75793;SDS011;64418;47.536;19.074;2023-04-24T05:43:40;10.87;;;7.10;;
75793;SDS011;64418;47.536;19.074;2023-04-24T05:46:26;10.20;;;7.43;;
75793;SDS011;64418;47.536;19.074;2023-04-24T05:49:10;17.45;;;9.07;;
75793;SDS011;64418;47.536;19.074;2023-04-24T05:51:54;13.75;;;7.30;;
75793;SDS011;64418;47.536;19.074;2023-04-24T05:54:39;12.95;;;7.35;;
75793;SDS011;64418;47.536;19.074;2023-04-24T05:57:26;11.60;;;6.97;;
75793;SDS011;64418;47.536;19.074;2023-04-24T06:00:11;11.23;;;6.83;;
75793;SDS011;64418;47.536;19.074;2023-04-24T06:02:57;10.77;;;7.25;;
75793;SDS011;64418;47.536;19.074;2023-04-24T06:05:42;12.32;;;7.00;;
75793;SDS011;64418;47.536;19.074;2023-04-24T06:08:27;11.05;;;6.80;;
75793;SDS011;64418;47.536;19.074;2023-04-24T06:11:11;14.07;;;7.10;;
75793;SDS011;64418;47.536;19.074;2023-04-24T06:13:58;12.47;;;6.87;;
75793;SDS011;64418;47.536;19.074;2023-04-24T06:16:43;11.00;;;7.22;;
75793;SDS011;64418;47.536;19.074;2023-04-24T06:19:29;11.05;;;7.43;;
75793;SDS011;64418;47.536;19.074;2023-04-24T06:22:13;12.55;;;7.20;;
75793;SDS011;64418;47.536;19.074;2023-04-24T06:24:58;9.77;;;7.75;;
75793;SDS011;64418;47.536;19.074;2023-04-24T06:27:43;12.37;;;7.30;;
75793;SDS011;64418;47.536;19.074;2023-04-24T06:30:27;10.40;;;7.20;;
75793;SDS011;64418;47.536;19.074;2023-04-24T06:33:11;12.60;;;7.72;;
75793;SDS011;64418;47.536;19.074;2023-04-24T06:35:57;13.68;;;8.73;;
75793;SDS011;64418;47.536;19.074;2023-04-24T06:38:41;9.82;;;7.20;;
75793;SDS011;64418;47.536;19.074;2023-04-24T06:41:25;10.30;;;7.40;;
75793;SDS011;64418;47.536;19.074;2023-04-24T06:44:10;11.67;;;7.07;;
75793;SDS011;64418;47.536;19.074;2023-04-24T06:46:54;9.43;;;6.50;;
75793;SDS011;64418;47.536;19.074;2023-04-24T06:49:38;8.68;;;5.78;;
75793;SDS011;64418;47.536;19.074;2023-04-24T06:52:24;11.80;;;7.05;;
75793;SDS011;64418;47.536;19.074;2023-04-24T06:55:08;9.63;;;6.35;;
75793;SDS011;64418;47.536;19.074;2023-04-24T06:57:53;10.80;;;6.80;;
75793;SDS011;64418;47.536;19.074;2023-04-24T07:00:37;13.37;;;6.93;;
75793;SDS011;64418;47.536;19.074;2023-04-24T07:03:22;11.80;;;6.67;;
75793;SDS011;64418;47.536;19.074;2023-04-24T07:06:06;9.85;;;6.90;;
75793;SDS011;64418;47.536;19.074;2023-04-24T07:08:52;10.73;;;7.03;;
75793;SDS011;64418;47.536;19.074;2023-04-24T07:11:37;9.40;;;6.80;;
75793;SDS011;64418;47.536;19.074;2023-04-24T07:14:22;10.35;;;6.37;;
75793;SDS011;64418;47.536;19.074;2023-04-24T07:17:07;9.30;;;6.50;;
75793;SDS011;64418;47.536;19.074;2023-04-24T07:19:51;10.43;;;7.13;;
75793;SDS011;64418;47.536;19.074;2023-04-24T07:22:35;11.02;;;6.82;;
75793;SDS011;64418;47.536;19.074;2023-04-24T07:25:20;10.45;;;7.47;;
75793;SDS011;64418;47.536;19.074;2023-04-24T07:28:05;9.02;;;7.15;;
75793;SDS011;64418;47.536;19.074;2023-04-24T07:30:49;10.80;;;7.07;;
75793;SDS011;64418;47.536;19.074;2023-04-24T07:33:34;10.43;;;7.20;;
75793;SDS011;64418;47.536;19.074;2023-04-24T07:36:18;12.97;;;7.23;;
75793;SDS011;64418;47.536;19.074;2023-04-24T07:39:03;10.80;;;6.60;;
75793;SDS011;64418;47.536;19.074;2023-04-24T07:41:49;10.20;;;6.75;;
75793;SDS011;64418;47.536;19.074;2023-04-24T07:44:33;10.00;;;6.68;;
75793;SDS011;64418;47.536;19.074;2023-04-24T07:47:18;14.35;;;8.05;;
75793;SDS011;64418;47.536;19.074;2023-04-24T07:50:03;10.90;;;7.17;;
75793;SDS011;64418;47.536;19.074;2023-04-24T07:52:48;14.67;;;8.00;;
75793;SDS011;64418;47.536;19.074;2023-04-24T07:55:32;9.13;;;6.50;;
75793;SDS011;64418;47.536;19.074;2023-04-24T07:58:18;10.52;;;6.68;;
75793;SDS011;64418;47.536;19.074;2023-04-24T08:01:02;12.45;;;7.15;;
75793;SDS011;64418;47.536;19.074;2023-04-24T08:03:46;12.40;;;7.18;;
75793;SDS011;64418;47.536;19.074;2023-04-24T08:06:31;11.07;;;7.40;;
75793;SDS011;64418;47.536;19.074;2023-04-24T08:09:16;9.97;;;6.87;;
75793;SDS011;64418;47.536;19.074;2023-04-24T08:12:00;11.00;;;6.78;;
75793;SDS011;64418;47.536;19.074;2023-04-24T08:14:46;10.00;;;7.37;;
75793;SDS011;64418;47.536;19.074;2023-04-24T08:17:34;13.13;;;7.12;;
75793;SDS011;64418;47.536;19.074;2023-04-24T08:20:18;10.27;;;7.37;;
75793;SDS011;64418;47.536;19.074;2023-04-24T08:23:03;10.50;;;7.23;;
75793;SDS011;64418;47.536;19.074;2023-04-24T08:25:48;11.65;;;7.72;;
75793;SDS011;64418;47.536;19.074;2023-04-24T08:28:32;15.23;;;6.93;;
75793;SDS011;64418;47.536;19.074;2023-04-24T08:31:18;11.63;;;6.87;;
75793;SDS011;64418;47.536;19.074;2023-04-24T08:34:02;11.30;;;6.72;;
75793;SDS011;64418;47.536;19.074;2023-04-24T08:36:47;11.23;;;7.23;;
75793;SDS011;64418;47.536;19.074;2023-04-24T08:39:32;8.63;;;7.07;;
75793;SDS011;64418;47.536;19.074;2023-04-24T08:42:16;11.00;;;7.40;;
75793;SDS011;64418;47.536;19.074;2023-04-24T08:45:02;10.52;;;7.10;;
75793;SDS011;64418;47.536;19.074;2023-04-24T08:47:48;9.88;;;6.93;;
75793;SDS011;64418;47.536;19.074;2023-04-24T08:50:32;10.07;;;6.72;;
75793;SDS011;64418;47.536;19.074;2023-04-24T08:53:18;13.20;;;6.90;;
75793;SDS011;64418;47.536;19.074;2023-04-24T08:56:03;9.98;;;6.47;;
75793;SDS011;64418;47.536;19.074;2023-04-24T08:58:47;14.45;;;6.82;;
75793;SDS011;64418;47.536;19.074;2023-04-24T09:01:32;9.65;;;6.70;;
75793;SDS011;64418;47.536;19.074;2023-04-24T09:04:17;9.70;;;6.85;;
75793;SDS011;64418;47.536;19.074;2023-04-24T09:07:04;9.43;;;6.60;;
75793;SDS011;64418;47.536;19.074;2023-04-24T09:09:50;11.03;;;6.73;;
75793;SDS011;64418;47.536;19.074;2023-04-24T09:12:35;8.95;;;6.95;;
75793;SDS011;64418;47.536;19.074;2023-04-24T09:15:23;9.00;;;6.68;;
75793;SDS011;64418;47.536;19.074;2023-04-24T09:18:08;11.40;;;7.07;;
75793;SDS011;64418;47.536;19.074;2023-04-24T09:21:01;9.55;;;6.50;;
75793;SDS011;64418;47.536;19.074;2023-04-24T09:23:46;11.80;;;6.47;;
75793;SDS011;64418;47.536;19.074;2023-04-24T09:26:42;7.87;;;4.68;;
75793;SDS011;64418;47.536;19.074;2023-04-24T09:29:27;10.35;;;5.68;;
75793;SDS011;64418;47.536;19.074;2023-04-24T09:32:18;6.65;;;5.03;;
75793;SDS011;64418;47.536;19.074;2023-04-24T09:35:07;7.57;;;5.03;;
75793;SDS011;64418;47.536;19.074;2023-04-24T09:37:55;7.67;;;4.87;;
75793;SDS011;64418;47.536;19.074;2023-04-24T09:40:41;8.50;;;4.57;;
75793;SDS011;64418;47.536;19.074;2023-04-24T09:43:26;8.25;;;4.65;;
75793;SDS011;64418;47.536;19.074;2023-04-24T09:46:10;9.85;;;4.47;;
75793;SDS011;64418;47.536;19.074;2023-04-24T09:48:54;10.63;;;4.87;;
75793;SDS011;64418;47.536;19.074;2023-04-24T09:51:39;9.33;;;4.67;;
75793;SDS011;64418;47.536;19.074;2023-04-24T09:54:25;8.90;;;5.10;;
75793;SDS011;64418;47.536;19.074;2023-04-24T09:57:09;10.75;;;5.03;;
75793;SDS011;64418;47.536;19.074;2023-04-24T09:59:53;5.65;;;3.80;;
75793;SDS011;64418;47.536;19.074;2023-04-24T10:02:38;8.43;;;4.37;;
75793;SDS011;64418;47.536;19.074;2023-04-24T10:05:23;7.57;;;4.65;;
75793;SDS011;64418;47.536;19.074;2023-04-24T10:08:09;7.77;;;4.03;;
75793;SDS011;64418;47.536;19.074;2023-04-24T10:10:55;9.18;;;4.30;;
75793;SDS011;64418;47.536;19.074;2023-04-24T10:13:40;7.68;;;3.80;;
75793;SDS011;64418;47.536;19.074;2023-04-24T10:16:25;8.50;;;3.95;;
75793;SDS011;64418;47.536;19.074;2023-04-24T10:19:10;6.12;;;4.55;;
75793;SDS011;64418;47.536;19.074;2023-04-24T10:21:55;5.87;;;4.40;;
75793;SDS011;64418;47.536;19.074;2023-04-24T10:24:40;5.40;;;4.12;;
75793;SDS011;64418;47.536;19.074;2023-04-24T10:27:27;7.60;;;4.70;;
75793;SDS011;64418;47.536;19.074;2023-04-24T10:30:14;6.50;;;4.05;;
75793;SDS011;64418;47.536;19.074;2023-04-24T10:32:59;7.45;;;4.87;;
75793;SDS011;64418;47.536;19.074;2023-04-24T10:35:45;8.57;;;4.33;;
75793;SDS011;64418;47.536;19.074;2023-04-24T10:38:33;8.37;;;4.27;;
75793;SDS011;64418;47.536;19.074;2023-04-24T10:41:19;8.23;;;4.57;;
75793;SDS011;64418;47.536;19.074;2023-04-24T10:44:05;6.68;;;3.92;;
75793;SDS011;64418;47.536;19.074;2023-04-24T10:46:52;5.30;;;4.07;;
75793;SDS011;64418;47.536;19.074;2023-04-24T10:49:38;9.27;;;5.05;;
75793;SDS011;64418;47.536;19.074;2023-04-24T10:52:11;6.70;;;4.30;;
75793;SDS011;64418;47.536;19.074;2023-04-24T10:55:05;7.35;;;4.80;;
75793;SDS011;64418;47.536;19.074;2023-04-24T10:57:32;7.87;;;5.30;;
75793;SDS011;64418;47.536;19.074;2023-04-24T11:00:12;12.23;;;5.57;;
75793;SDS011;64418;47.536;19.074;2023-04-24T11:02:40;9.88;;;5.55;;
75793;SDS011;64418;47.536;19.074;2023-04-24T11:05:07;9.53;;;6.10;;
75793;SDS011;64418;47.536;19.074;2023-04-24T11:10:37;8.73;;;6.00;;
75793;SDS011;64418;47.536;19.074;2023-04-24T11:13:04;11.63;;;6.53;;
75793;SDS011;64418;47.536;19.074;2023-04-24T11:15:31;9.68;;;6.53;;
75793;SDS011;64418;47.536;19.074;2023-04-24T11:17:57;11.53;;;6.57;;
75793;SDS011;64418;47.536;19.074;2023-04-24T11:20:23;10.80;;;6.07;;
75793;SDS011;64418;47.536;19.074;2023-04-24T11:22:49;9.85;;;5.90;;
75793;SDS011;64418;47.536;19.074;2023-04-24T11:25:18;9.23;;;6.10;;
75793;SDS011;64418;47.536;19.074;2023-04-24T11:27:44;9.03;;;5.53;;
75793;SDS011;64418;47.536;19.074;2023-04-24T11:30:10;10.68;;;5.35;;
75793;SDS011;64418;47.536;19.074;2023-04-24T11:32:38;9.15;;;5.93;;
75793;SDS011;64418;47.536;19.074;2023-04-24T11:35:06;8.75;;;6.22;;
75793;SDS011;64418;47.536;19.074;2023-04-24T11:37:36;10.77;;;6.90;;
75793;SDS011;64418;47.536;19.074;2023-04-24T11:40:03;8.47;;;6.07;;
75793;SDS011;64418;47.536;19.074;2023-04-24T11:42:33;9.25;;;6.40;;
75793;SDS011;64418;47.536;19.074;2023-04-24T11:44:59;8.80;;;6.03;;
75793;SDS011;64418;47.536;19.074;2023-04-24T11:47:28;13.50;;;6.47;;
75793;SDS011;64418;47.536;19.074;2023-04-24T11:49:56;10.77;;;6.70;;
75793;SDS011;64418;47.536;19.074;2023-04-24T11:52:23;8.40;;;6.05;;
75793;SDS011;64418;47.536;19.074;2023-04-24T11:54:49;9.50;;;6.12;;
75793;SDS011;64418;47.536;19.074;2023-04-24T11:57:15;8.98;;;6.20;;
75793;SDS011;64418;47.536;19.074;2023-04-24T11:59:45;13.47;;;6.93;;
75793;SDS011;64418;47.536;19.074;2023-04-24T12:02:21;12.07;;;6.00;;
75793;SDS011;64418;47.536;19.074;2023-04-24T12:04:48;14.00;;;6.53;;
75793;SDS011;64418;47.536;19.074;2023-04-24T12:07:16;11.90;;;6.43;;
75793;SDS011;64418;47.536;19.074;2023-04-24T12:09:43;10.85;;;6.72;;
75793;SDS011;64418;47.536;19.074;2023-04-24T12:12:10;8.80;;;6.32;;
75793;SDS011;64418;47.536;19.074;2023-04-24T12:14:42;14.43;;;6.60;;
75793;SDS011;64418;47.536;19.074;2023-04-24T12:17:08;13.15;;;7.70;;
75793;SDS011;64418;47.536;19.074;2023-04-24T12:19:34;8.63;;;6.85;;
75793;SDS011;64418;47.536;19.074;2023-04-24T12:22:00;12.93;;;7.62;;
75793;SDS011;64418;47.536;19.074;2023-04-24T12:24:29;11.23;;;7.30;;
75793;SDS011;64418;47.536;19.074;2023-04-24T12:26:55;10.47;;;7.10;;
75793;SDS011;64418;47.536;19.074;2023-04-24T12:29:20;9.60;;;7.15;;
75793;SDS011;64418;47.536;19.074;2023-04-24T12:31:46;10.80;;;6.20;;
75793;SDS011;64418;47.536;19.074;2023-04-24T12:34:17;10.63;;;6.47;;
75793;SDS011;64418;47.536;19.074;2023-04-24T12:36:43;9.33;;;6.00;;
75793;SDS011;64418;47.536;19.074;2023-04-24T12:39:14;9.80;;;5.83;;
75793;SDS011;64418;47.536;19.074;2023-04-24T12:41:50;11.27;;;6.10;;
75793;SDS011;64418;47.536;19.074;2023-04-24T12:44:19;8.00;;;5.18;;
75793;SDS011;64418;47.536;19.074;2023-04-24T12:46:54;14.32;;;6.60;;
75793;SDS011;64418;47.536;19.074;2023-04-24T12:49:20;8.93;;;6.17;;
75793;SDS011;64418;47.536;19.074;2023-04-24T12:51:46;11.70;;;6.50;;
75793;SDS011;64418;47.536;19.074;2023-04-24T12:54:18;12.95;;;6.72;;
75793;SDS011;64418;47.536;19.074;2023-04-24T12:56:44;9.90;;;6.30;;
75793;SDS011;64418;47.536;19.074;2023-04-24T12:59:11;11.95;;;6.20;;
75793;SDS011;64418;47.536;19.074;2023-04-24T13:01:38;13.82;;;6.25;;
75793;SDS011;64418;47.536;19.074;2023-04-24T13:04:04;10.77;;;6.00;;
75793;SDS011;64418;47.536;19.074;2023-04-24T13:06:30;11.30;;;5.72;;
75793;SDS011;64418;47.536;19.074;2023-04-24T13:08:56;8.82;;;6.12;;
75793;SDS011;64418;47.536;19.074;2023-04-24T13:11:22;9.47;;;5.67;;
75793;SDS011;64418;47.536;19.074;2023-04-24T13:13:48;10.25;;;4.93;;
75793;SDS011;64418;47.536;19.074;2023-04-24T13:16:15;10.02;;;4.65;;
75793;SDS011;64418;47.536;19.074;2023-04-24T13:18:41;8.32;;;4.30;;
75793;SDS011;64418;47.536;19.074;2023-04-24T13:21:07;6.80;;;4.90;;
75793;SDS011;64418;47.536;19.074;2023-04-24T13:23:33;8.63;;;4.37;;
75793;SDS011;64418;47.536;19.074;2023-04-24T13:25:59;7.32;;;3.92;;
75793;SDS011;64418;47.536;19.074;2023-04-24T13:28:25;6.28;;;3.62;;
75793;SDS011;64418;47.536;19.074;2023-04-24T13:30:51;13.13;;;4.10;;
75793;SDS011;64418;47.536;19.074;2023-04-24T13:33:18;5.40;;;3.45;;
75793;SDS011;64418;47.536;19.074;2023-04-24T13:35:44;4.55;;;3.10;;
75793;SDS011;64418;47.536;19.074;2023-04-24T13:38:10;7.30;;;3.80;;
75793;SDS011;64418;47.536;19.074;2023-04-24T13:40:35;6.73;;;3.13;;
75793;SDS011;64418;47.536;19.074;2023-04-24T13:43:01;5.47;;;2.95;;
75793;SDS011;64418;47.536;19.074;2023-04-24T13:45:28;11.43;;;3.42;;
75793;SDS011;64418;47.536;19.074;2023-04-24T13:47:54;7.03;;;3.67;;
75793;SDS011;64418;47.536;19.074;2023-04-24T13:50:21;5.73;;;3.00;;
75793;SDS011;64418;47.536;19.074;2023-04-24T13:52:47;5.45;;;2.47;;
75793;SDS011;64418;47.536;19.074;2023-04-24T13:55:12;5.77;;;3.00;;
75793;SDS011;64418;47.536;19.074;2023-04-24T13:57:38;11.93;;;4.27;;
75793;SDS011;64418;47.536;19.074;2023-04-24T14:00:05;9.13;;;4.00;;
75793;SDS011;64418;47.536;19.074;2023-04-24T14:02:33;12.50;;;4.75;;
75793;SDS011;64418;47.536;19.074;2023-04-24T14:04:58;10.93;;;5.22;;
75793;SDS011;64418;47.536;19.074;2023-04-24T14:07:26;13.40;;;6.23;;
75793;SDS011;64418;47.536;19.074;2023-04-24T14:09:53;9.32;;;5.25;;
75793;SDS011;64418;47.536;19.074;2023-04-24T14:12:18;11.77;;;5.50;;
75793;SDS011;64418;47.536;19.074;2023-04-24T14:14:44;14.07;;;6.03;;
75793;SDS011;64418;47.536;19.074;2023-04-24T14:17:11;9.05;;;5.50;;
75793;SDS011;64418;47.536;19.074;2023-04-24T14:19:36;20.02;;;6.78;;
75793;SDS011;64418;47.536;19.074;2023-04-24T14:22:03;16.27;;;7.27;;
75793;SDS011;64418;47.536;19.074;2023-04-24T14:24:30;10.93;;;6.70;;
75793;SDS011;64418;47.536;19.074;2023-04-24T14:26:56;14.63;;;6.85;;
75793;SDS011;64418;47.536;19.074;2023-04-24T14:29:22;14.18;;;7.15;;
75793;SDS011;64418;47.536;19.074;2023-04-24T14:31:48;17.10;;;7.97;;
75793;SDS011;64418;47.536;19.074;2023-04-24T14:34:14;16.15;;;7.00;;
75793;SDS011;64418;47.536;19.074;2023-04-24T14:36:40;12.80;;;7.27;;
75793;SDS011;64418;47.536;19.074;2023-04-24T14:39:05;16.95;;;8.80;;
75793;SDS011;64418;47.536;19.074;2023-04-24T14:41:33;14.55;;;7.75;;
75793;SDS011;64418;47.536;19.074;2023-04-24T14:43:59;16.45;;;8.27;;
75793;SDS011;64418;47.536;19.074;2023-04-24T14:46:25;13.37;;;7.97;;
75793;SDS011;64418;47.536;19.074;2023-04-24T14:48:50;12.40;;;7.95;;
75793;SDS011;64418;47.536;19.074;2023-04-24T14:51:16;17.57;;;9.07;;
75793;SDS011;64418;47.536;19.074;2023-04-24T14:53:42;14.43;;;8.05;;
75793;SDS011;64418;47.536;19.074;2023-04-24T14:56:07;14.00;;;8.53;;
75793;SDS011;64418;47.536;19.074;2023-04-24T14:58:35;13.75;;;9.50;;
75793;SDS011;64418;47.536;19.074;2023-04-24T15:01:01;11.30;;;8.55;;
75793;SDS011;64418;47.536;19.074;2023-04-24T15:03:27;15.67;;;9.27;;
75793;SDS011;64418;47.536;19.074;2023-04-24T15:05:53;12.52;;;8.07;;
75793;SDS011;64418;47.536;19.074;2023-04-24T15:08:19;13.75;;;9.13;;
75793;SDS011;64418;47.536;19.074;2023-04-24T15:10:46;16.83;;;9.32;;
75793;SDS011;64418;47.536;19.074;2023-04-24T15:13:12;13.75;;;9.00;;
75793;SDS011;64418;47.536;19.074;2023-04-24T15:15:39;14.73;;;8.57;;
75793;SDS011;64418;47.536;19.074;2023-04-24T15:18:05;10.20;;;7.68;;
75793;SDS011;64418;47.536;19.074;2023-04-24T15:20:31;12.10;;;7.60;;
75793;SDS011;64418;47.536;19.074;2023-04-24T15:22:57;9.40;;;6.80;;
75793;SDS011;64418;47.536;19.074;2023-04-24T15:25:22;11.55;;;6.40;;
75793;SDS011;64418;47.536;19.074;2023-04-24T15:27:48;11.43;;;6.12;;
75793;SDS011;64418;47.536;19.074;2023-04-24T15:30:14;6.83;;;5.30;;
75793;SDS011;64418;47.536;19.074;2023-04-24T15:32:42;9.30;;;5.78;;
75793;SDS011;64418;47.536;19.074;2023-04-24T15:35:08;8.48;;;5.60;;
75793;SDS011;64418;47.536;19.074;2023-04-24T15:37:35;7.75;;;5.53;;